sensor_id;sensor_type;location;lat;lon;timestamp;P1;durP1;ratioP1;P2;durP2;ratioP2
18649;SDS011;9454;53.516;10.478;2024-03-22T00:01:58;9.50;;;4.00;;
18649;SDS011;9454;53.516;10.478;2024-03-22T00:05:02;8.23;;;4.20;;
18649;SDS011;9454;53.516;10.478;2024-03-22T00:08:05;9.52;;;4.03;;
18649;SDS011;9454;53.516;10.478;2024-03-22T00:11:07;9.95;;;3.67;;
18649;SDS011;9454;53.516;10.478;2024-03-22T00:14:09;10.73;;;4.82;;
18649;SDS011;9454;53.516;10.478;2024-03-22T00:17:12;11.52;;;4.68;;
18649;SDS011;9454;53.516;10.478;2024-03-22T00:20:15;12.68;;;4.32;;
18649;SDS011;9454;53.516;10.478;2024-03-22T00:23:18;12.52;;;4.20;;
18649;SDS011;9454;53.516;10.478;2024-03-22T00:26:20;10.95;;;4.78;;
18649;SDS011;9454;53.516;10.478;2024-03-22T00:29:25;11.18;;;5.00;;
18649;SDS011;9454;53.516;10.478;2024-03-22T00:32:28;10.73;;;4.88;;
18649;SDS011;9454;53.516;10.478;2024-03-22T00:35:30;8.43;;;4.40;;
18649;SDS011;9454;53.516;10.478;2024-03-22T00:38:33;13.55;;;5.25;;
18649;SDS011;9454;53.516;10.478;2024-03-22T00:41:36;10.65;;;5.00;;
18649;SDS011;9454;53.516;10.478;2024-03-22T00:44:39;10.63;;;4.55;;
18649;SDS011;9454;53.516;10.478;2024-03-22T00:47:41;10.90;;;5.20;;
18649;SDS011;9454;53.516;10.478;2024-03-22T00:50:44;16.40;;;4.93;;
18649;SDS011;9454;53.516;10.478;2024-03-22T00:53:47;10.88;;;5.80;;
18649;SDS011;9454;53.516;10.478;2024-03-22T00:56:49;10.25;;;4.80;;
18649;SDS011;9454;53.516;10.478;2024-03-22T00:59:51;14.88;;;5.38;;
18649;SDS011;9454;53.516;10.478;2024-03-22T01:02:54;9.60;;;5.30;;
18649;SDS011;9454;53.516;10.478;2024-03-22T01:05:58;11.43;;;4.88;;
18649;SDS011;9454;53.516;10.478;2024-03-22T01:09:00;8.02;;;4.95;;
18649;SDS011;9454;53.516;10.478;2024-03-22T01:12:05;10.23;;;5.20;;
18649;SDS011;9454;53.516;10.478;2024-03-22T01:15:07;10.50;;;5.30;;
18649;SDS011;9454;53.516;10.478;2024-03-22T01:18:09;9.38;;;4.82;;
18649;SDS011;9454;53.516;10.478;2024-03-22T01:21:13;11.70;;;6.05;;
18649;SDS011;9454;53.516;10.478;2024-03-22T01:24:24;11.02;;;5.25;;
18649;SDS011;9454;53.516;10.478;2024-03-22T01:27:26;11.63;;;5.20;;
18649;SDS011;9454;53.516;10.478;2024-03-22T01:30:28;9.20;;;4.97;;
18649;SDS011;9454;53.516;10.478;2024-03-22T01:33:31;10.85;;;5.45;;
18649;SDS011;9454;53.516;10.478;2024-03-22T01:36:35;11.07;;;5.38;;
18649;SDS011;9454;53.516;10.478;2024-03-22T01:39:37;11.75;;;4.78;;
18649;SDS011;9454;53.516;10.478;2024-03-22T01:42:39;10.63;;;4.93;;
18649;SDS011;9454;53.516;10.478;2024-03-22T01:45:42;11.93;;;5.65;;
18649;SDS011;9454;53.516;10.478;2024-03-22T01:48:44;13.85;;;6.18;;
18649;SDS011;9454;53.516;10.478;2024-03-22T01:51:48;9.43;;;5.20;;
18649;SDS011;9454;53.516;10.478;2024-03-22T01:54:49;15.52;;;6.25;;
18649;SDS011;9454;53.516;10.478;2024-03-22T01:57:53;13.65;;;5.80;;
18649;SDS011;9454;53.516;10.478;2024-03-22T02:00:56;10.23;;;6.22;;
18649;SDS011;9454;53.516;10.478;2024-03-22T02:03:58;16.65;;;7.75;;
18649;SDS011;9454;53.516;10.478;2024-03-22T02:07:02;15.23;;;5.85;;
18649;SDS011;9454;53.516;10.478;2024-03-22T02:10:04;17.05;;;6.72;;
18649;SDS011;9454;53.516;10.478;2024-03-22T02:13:08;12.88;;;7.22;;
18649;SDS011;9454;53.516;10.478;2024-03-22T02:16:09;11.73;;;6.82;;
18649;SDS011;9454;53.516;10.478;2024-03-22T02:19:12;12.52;;;7.13;;
18649;SDS011;9454;53.516;10.478;2024-03-22T02:22:16;14.48;;;7.45;;
18649;SDS011;9454;53.516;10.478;2024-03-22T02:25:23;14.85;;;7.43;;
18649;SDS011;9454;53.516;10.478;2024-03-22T02:28:26;13.80;;;7.65;;
18649;SDS011;9454;53.516;10.478;2024-03-22T02:31:28;13.65;;;7.20;;
18649;SDS011;9454;53.516;10.478;2024-03-22T02:34:30;16.05;;;7.22;;
18649;SDS011;9454;53.516;10.478;2024-03-22T02:37:32;13.38;;;7.95;;
18649;SDS011;9454;53.516;10.478;2024-03-22T02:40:35;15.32;;;7.93;;
18649;SDS011;9454;53.516;10.478;2024-03-22T02:43:38;18.77;;;7.97;;
18649;SDS011;9454;53.516;10.478;2024-03-22T02:46:40;15.00;;;7.60;;
18649;SDS011;9454;53.516;10.478;2024-03-22T02:49:43;14.38;;;8.00;;
18649;SDS011;9454;53.516;10.478;2024-03-22T02:52:45;15.90;;;7.53;;
18649;SDS011;9454;53.516;10.478;2024-03-22T02:55:49;14.18;;;7.65;;
18649;SDS011;9454;53.516;10.478;2024-03-22T02:58:50;17.85;;;8.10;;
18649;SDS011;9454;53.516;10.478;2024-03-22T03:01:53;13.73;;;7.82;;
18649;SDS011;9454;53.516;10.478;2024-03-22T03:04:55;18.42;;;8.30;;
18649;SDS011;9454;53.516;10.478;2024-03-22T03:07:58;15.40;;;8.20;;
18649;SDS011;9454;53.516;10.478;2024-03-22T03:11:01;17.95;;;8.80;;
18649;SDS011;9454;53.516;10.478;2024-03-22T03:14:03;18.83;;;9.32;;
18649;SDS011;9454;53.516;10.478;2024-03-22T03:17:05;18.50;;;8.60;;
18649;SDS011;9454;53.516;10.478;2024-03-22T03:20:08;20.70;;;8.85;;
18649;SDS011;9454;53.516;10.478;2024-03-22T03:23:13;22.90;;;9.43;;
18649;SDS011;9454;53.516;10.478;2024-03-22T03:26:17;18.08;;;8.82;;
18649;SDS011;9454;53.516;10.478;2024-03-22T03:29:19;19.20;;;9.10;;
18649;SDS011;9454;53.516;10.478;2024-03-22T03:32:21;18.48;;;9.48;;
18649;SDS011;9454;53.516;10.478;2024-03-22T03:35:23;22.20;;;10.00;;
18649;SDS011;9454;53.516;10.478;2024-03-22T03:38:26;21.35;;;10.60;;
18649;SDS011;9454;53.516;10.478;2024-03-22T03:41:30;20.52;;;10.50;;
18649;SDS011;9454;53.516;10.478;2024-03-22T03:44:32;18.25;;;9.43;;
18649;SDS011;9454;53.516;10.478;2024-03-22T03:47:34;23.23;;;11.68;;
18649;SDS011;9454;53.516;10.478;2024-03-22T03:50:36;20.67;;;10.82;;
18649;SDS011;9454;53.516;10.478;2024-03-22T03:53:38;21.20;;;11.50;;
18649;SDS011;9454;53.516;10.478;2024-03-22T03:56:42;20.83;;;10.98;;
18649;SDS011;9454;53.516;10.478;2024-03-22T03:59:44;26.95;;;11.40;;
18649;SDS011;9454;53.516;10.478;2024-03-22T04:02:48;21.58;;;11.45;;
18649;SDS011;9454;53.516;10.478;2024-03-22T04:05:56;25.15;;;12.63;;
18649;SDS011;9454;53.516;10.478;2024-03-22T04:08:58;23.13;;;12.48;;
18649;SDS011;9454;53.516;10.478;2024-03-22T04:12:02;27.00;;;11.63;;
18649;SDS011;9454;53.516;10.478;2024-03-22T04:15:05;22.42;;;11.60;;
18649;SDS011;9454;53.516;10.478;2024-03-22T04:18:08;24.10;;;12.65;;
18649;SDS011;9454;53.516;10.478;2024-03-22T04:21:10;23.27;;;12.50;;
18649;SDS011;9454;53.516;10.478;2024-03-22T04:24:12;24.52;;;12.20;;
18649;SDS011;9454;53.516;10.478;2024-03-22T04:27:16;24.73;;;11.98;;
18649;SDS011;9454;53.516;10.478;2024-03-22T04:30:18;23.38;;;12.40;;
18649;SDS011;9454;53.516;10.478;2024-03-22T04:33:20;29.55;;;12.55;;
18649;SDS011;9454;53.516;10.478;2024-03-22T04:36:23;25.92;;;11.77;;
18649;SDS011;9454;53.516;10.478;2024-03-22T04:39:24;26.52;;;14.07;;
18649;SDS011;9454;53.516;10.478;2024-03-22T04:42:28;27.02;;;11.98;;
18649;SDS011;9454;53.516;10.478;2024-03-22T04:45:31;25.25;;;12.70;;
18649;SDS011;9454;53.516;10.478;2024-03-22T04:48:34;26.20;;;12.68;;
18649;SDS011;9454;53.516;10.478;2024-03-22T04:51:35;27.10;;;14.38;;
18649;SDS011;9454;53.516;10.478;2024-03-22T04:54:38;23.50;;;12.38;;
18649;SDS011;9454;53.516;10.478;2024-03-22T04:57:41;28.23;;;14.32;;
18649;SDS011;9454;53.516;10.478;2024-03-22T05:00:44;30.92;;;12.68;;
18649;SDS011;9454;53.516;10.478;2024-03-22T05:03:45;34.28;;;14.45;;
18649;SDS011;9454;53.516;10.478;2024-03-22T05:06:48;25.55;;;13.02;;
18649;SDS011;9454;53.516;10.478;2024-03-22T05:09:50;26.77;;;13.35;;
18649;SDS011;9454;53.516;10.478;2024-03-22T05:12:54;25.15;;;13.63;;
18649;SDS011;9454;53.516;10.478;2024-03-22T05:15:57;25.25;;;12.60;;
18649;SDS011;9454;53.516;10.478;2024-03-22T05:18:58;26.55;;;13.98;;
18649;SDS011;9454;53.516;10.478;2024-03-22T05:22:01;28.35;;;13.50;;
18649;SDS011;9454;53.516;10.478;2024-03-22T05:25:03;24.58;;;14.15;;
18649;SDS011;9454;53.516;10.478;2024-03-22T05:28:07;33.40;;;13.15;;
18649;SDS011;9454;53.516;10.478;2024-03-22T05:31:10;24.00;;;13.23;;
18649;SDS011;9454;53.516;10.478;2024-03-22T05:34:12;28.85;;;13.65;;
18649;SDS011;9454;53.516;10.478;2024-03-22T05:37:15;28.73;;;13.85;;
18649;SDS011;9454;53.516;10.478;2024-03-22T05:40:17;28.92;;;14.02;;
18649;SDS011;9454;53.516;10.478;2024-03-22T05:43:23;25.85;;;13.75;;
18649;SDS011;9454;53.516;10.478;2024-03-22T05:46:29;27.98;;;13.73;;
18649;SDS011;9454;53.516;10.478;2024-03-22T05:49:30;26.15;;;13.75;;
18649;SDS011;9454;53.516;10.478;2024-03-22T05:52:33;31.38;;;15.32;;
18649;SDS011;9454;53.516;10.478;2024-03-22T05:55:36;27.45;;;14.52;;
18649;SDS011;9454;53.516;10.478;2024-03-22T05:58:40;26.92;;;13.70;;
18649;SDS011;9454;53.516;10.478;2024-03-22T06:01:42;26.45;;;13.82;;
18649;SDS011;9454;53.516;10.478;2024-03-22T06:04:44;26.70;;;14.23;;
18649;SDS011;9454;53.516;10.478;2024-03-22T06:07:47;28.63;;;14.07;;
18649;SDS011;9454;53.516;10.478;2024-03-22T06:10:50;30.20;;;15.40;;
18649;SDS011;9454;53.516;10.478;2024-03-22T06:13:54;33.30;;;14.68;;
18649;SDS011;9454;53.516;10.478;2024-03-22T06:16:55;33.00;;;14.90;;
18649;SDS011;9454;53.516;10.478;2024-03-22T06:19:59;28.98;;;15.95;;
18649;SDS011;9454;53.516;10.478;2024-03-22T06:23:00;36.22;;;15.73;;
18649;SDS011;9454;53.516;10.478;2024-03-22T06:26:03;31.98;;;15.50;;
18649;SDS011;9454;53.516;10.478;2024-03-22T06:29:07;32.45;;;15.93;;
18649;SDS011;9454;53.516;10.478;2024-03-22T06:32:16;31.27;;;15.20;;
18649;SDS011;9454;53.516;10.478;2024-03-22T06:35:18;37.30;;;16.63;;
18649;SDS011;9454;53.516;10.478;2024-03-22T06:38:21;33.72;;;16.30;;
18649;SDS011;9454;53.516;10.478;2024-03-22T06:41:22;34.67;;;16.50;;
18649;SDS011;9454;53.516;10.478;2024-03-22T06:44:27;36.42;;;17.77;;
18649;SDS011;9454;53.516;10.478;2024-03-22T06:47:30;34.63;;;17.00;;
18649;SDS011;9454;53.516;10.478;2024-03-22T06:50:31;34.88;;;17.10;;
18649;SDS011;9454;53.516;10.478;2024-03-22T06:53:34;41.25;;;17.30;;
18649;SDS011;9454;53.516;10.478;2024-03-22T06:56:36;33.47;;;16.63;;
18649;SDS011;9454;53.516;10.478;2024-03-22T06:59:39;38.35;;;18.38;;
18649;SDS011;9454;53.516;10.478;2024-03-22T07:02:41;38.85;;;17.48;;
18649;SDS011;9454;53.516;10.478;2024-03-22T07:05:44;39.20;;;18.30;;
18649;SDS011;9454;53.516;10.478;2024-03-22T07:08:45;36.70;;;17.00;;
18649;SDS011;9454;53.516;10.478;2024-03-22T07:11:52;36.60;;;17.05;;
18649;SDS011;9454;53.516;10.478;2024-03-22T07:14:58;31.95;;;15.75;;
18649;SDS011;9454;53.516;10.478;2024-03-22T07:18:03;38.00;;;18.67;;
18649;SDS011;9454;53.516;10.478;2024-03-22T07:21:05;36.80;;;19.42;;
18649;SDS011;9454;53.516;10.478;2024-03-22T07:24:09;36.83;;;17.67;;
18649;SDS011;9454;53.516;10.478;2024-03-22T07:27:11;37.83;;;16.58;;
18649;SDS011;9454;53.516;10.478;2024-03-22T07:30:16;37.35;;;18.67;;
18649;SDS011;9454;53.516;10.478;2024-03-22T07:33:18;42.00;;;18.90;;
18649;SDS011;9454;53.516;10.478;2024-03-22T07:36:23;36.47;;;17.38;;
18649;SDS011;9454;53.516;10.478;2024-03-22T07:39:25;41.92;;;19.45;;
18649;SDS011;9454;53.516;10.478;2024-03-22T07:42:27;35.13;;;17.67;;
18649;SDS011;9454;53.516;10.478;2024-03-22T07:45:31;41.78;;;18.80;;
18649;SDS011;9454;53.516;10.478;2024-03-22T07:48:33;46.35;;;20.10;;
18649;SDS011;9454;53.516;10.478;2024-03-22T07:51:35;44.80;;;18.77;;
18649;SDS011;9454;53.516;10.478;2024-03-22T07:54:38;40.30;;;18.45;;
18649;SDS011;9454;53.516;10.478;2024-03-22T07:57:39;39.03;;;18.98;;
18649;SDS011;9454;53.516;10.478;2024-03-22T08:00:47;44.72;;;20.38;;
18649;SDS011;9454;53.516;10.478;2024-03-22T08:03:53;44.72;;;19.70;;
18649;SDS011;9454;53.516;10.478;2024-03-22T08:06:57;42.03;;;20.88;;
18649;SDS011;9454;53.516;10.478;2024-03-22T08:09:59;46.70;;;20.00;;
18649;SDS011;9454;53.516;10.478;2024-03-22T08:13:02;40.92;;;19.55;;
18649;SDS011;9454;53.516;10.478;2024-03-22T08:16:08;43.33;;;21.52;;
18649;SDS011;9454;53.516;10.478;2024-03-22T08:19:09;41.35;;;19.63;;
18649;SDS011;9454;53.516;10.478;2024-03-22T08:22:16;43.28;;;20.10;;
18649;SDS011;9454;53.516;10.478;2024-03-22T08:25:18;45.17;;;20.63;;
18649;SDS011;9454;53.516;10.478;2024-03-22T08:28:21;44.97;;;19.63;;
18649;SDS011;9454;53.516;10.478;2024-03-22T08:31:25;46.28;;;19.92;;
18649;SDS011;9454;53.516;10.478;2024-03-22T08:34:28;42.92;;;18.40;;
18649;SDS011;9454;53.516;10.478;2024-03-22T08:37:33;40.55;;;19.48;;
18649;SDS011;9454;53.516;10.478;2024-03-22T08:40:36;41.38;;;19.02;;
18649;SDS011;9454;53.516;10.478;2024-03-22T08:43:38;44.42;;;21.17;;
18649;SDS011;9454;53.516;10.478;2024-03-22T08:46:43;44.10;;;19.65;;
18649;SDS011;9454;53.516;10.478;2024-03-22T08:49:48;39.47;;;19.50;;
18649;SDS011;9454;53.516;10.478;2024-03-22T08:52:51;41.20;;;19.27;;
18649;SDS011;9454;53.516;10.478;2024-03-22T08:55:53;42.08;;;19.20;;
18649;SDS011;9454;53.516;10.478;2024-03-22T08:58:55;42.85;;;19.52;;
18649;SDS011;9454;53.516;10.478;2024-03-22T09:01:59;42.85;;;18.60;;
18649;SDS011;9454;53.516;10.478;2024-03-22T09:05:05;41.55;;;18.52;;
18649;SDS011;9454;53.516;10.478;2024-03-22T09:08:14;37.22;;;18.05;;
18649;SDS011;9454;53.516;10.478;2024-03-22T09:11:17;40.63;;;17.83;;
18649;SDS011;9454;53.516;10.478;2024-03-22T09:14:22;38.58;;;18.42;;
18649;SDS011;9454;53.516;10.478;2024-03-22T09:17:25;42.53;;;18.85;;
18649;SDS011;9454;53.516;10.478;2024-03-22T09:20:28;41.97;;;19.35;;
18649;SDS011;9454;53.516;10.478;2024-03-22T09:23:29;46.25;;;18.00;;
18649;SDS011;9454;53.516;10.478;2024-03-22T09:26:34;41.20;;;17.85;;
18649;SDS011;9454;53.516;10.478;2024-03-22T09:29:37;46.38;;;18.23;;
18649;SDS011;9454;53.516;10.478;2024-03-22T09:32:41;43.35;;;18.98;;
18649;SDS011;9454;53.516;10.478;2024-03-22T09:35:45;44.13;;;18.75;;
18649;SDS011;9454;53.516;10.478;2024-03-22T09:38:46;45.92;;;19.05;;
18649;SDS011;9454;53.516;10.478;2024-03-22T09:41:52;41.00;;;18.08;;
18649;SDS011;9454;53.516;10.478;2024-03-22T09:44:59;36.85;;;18.05;;
18649;SDS011;9454;53.516;10.478;2024-03-22T09:48:03;37.85;;;17.92;;
18649;SDS011;9454;53.516;10.478;2024-03-22T09:51:06;40.65;;;19.00;;
18649;SDS011;9454;53.516;10.478;2024-03-22T09:54:09;38.45;;;17.77;;
18649;SDS011;9454;53.516;10.478;2024-03-22T09:57:13;39.05;;;17.65;;
18649;SDS011;9454;53.516;10.478;2024-03-22T10:00:20;37.03;;;18.27;;
18649;SDS011;9454;53.516;10.478;2024-03-22T10:03:30;40.80;;;17.58;;
18649;SDS011;9454;53.516;10.478;2024-03-22T10:06:33;40.58;;;18.05;;
18649;SDS011;9454;53.516;10.478;2024-03-22T10:09:36;37.60;;;16.85;;
18649;SDS011;9454;53.516;10.478;2024-03-22T10:12:40;36.00;;;16.55;;
18649;SDS011;9454;53.516;10.478;2024-03-22T10:15:46;34.10;;;15.73;;
18649;SDS011;9454;53.516;10.478;2024-03-22T10:18:54;35.92;;;15.82;;
18649;SDS011;9454;53.516;10.478;2024-03-22T10:21:59;34.80;;;15.57;;
18649;SDS011;9454;53.516;10.478;2024-03-22T10:25:01;36.13;;;14.60;;
18649;SDS011;9454;53.516;10.478;2024-03-22T10:28:04;33.10;;;13.68;;
18649;SDS011;9454;53.516;10.478;2024-03-22T10:31:10;34.00;;;14.40;;
18649;SDS011;9454;53.516;10.478;2024-03-22T10:34:15;32.67;;;14.63;;
18649;SDS011;9454;53.516;10.478;2024-03-22T10:37:22;30.40;;;14.05;;
18649;SDS011;9454;53.516;10.478;2024-03-22T10:40:24;32.75;;;15.35;;
18649;SDS011;9454;53.516;10.478;2024-03-22T10:43:32;31.52;;;14.38;;
18649;SDS011;9454;53.516;10.478;2024-03-22T10:46:33;31.83;;;15.07;;
18649;SDS011;9454;53.516;10.478;2024-03-22T10:49:38;29.42;;;14.05;;
18649;SDS011;9454;53.516;10.478;2024-03-22T10:52:45;30.75;;;14.75;;
18649;SDS011;9454;53.516;10.478;2024-03-22T10:55:49;26.52;;;12.63;;
18649;SDS011;9454;53.516;10.478;2024-03-22T10:58:52;31.45;;;13.32;;
18649;SDS011;9454;53.516;10.478;2024-03-22T11:02:02;24.65;;;11.52;;
18649;SDS011;9454;53.516;10.478;2024-03-22T11:05:06;21.92;;;11.43;;
18649;SDS011;9454;53.516;10.478;2024-03-22T11:08:09;29.55;;;13.98;;
18649;SDS011;9454;53.516;10.478;2024-03-22T11:11:11;27.20;;;11.63;;
18649;SDS011;9454;53.516;10.478;2024-03-22T11:14:13;26.52;;;12.30;;
18649;SDS011;9454;53.516;10.478;2024-03-22T11:17:17;25.95;;;12.07;;
18649;SDS011;9454;53.516;10.478;2024-03-22T11:20:20;23.70;;;10.98;;
18649;SDS011;9454;53.516;10.478;2024-03-22T11:23:23;23.35;;;11.82;;
18649;SDS011;9454;53.516;10.478;2024-03-22T11:26:25;22.35;;;11.20;;
18649;SDS011;9454;53.516;10.478;2024-03-22T11:29:27;21.15;;;11.02;;
18649;SDS011;9454;53.516;10.478;2024-03-22T11:32:29;23.20;;;11.25;;
18649;SDS011;9454;53.516;10.478;2024-03-22T11:35:34;24.23;;;10.82;;
18649;SDS011;9454;53.516;10.478;2024-03-22T11:38:37;19.73;;;10.55;;
18649;SDS011;9454;53.516;10.478;2024-03-22T11:41:40;14.38;;;7.95;;
18649;SDS011;9454;53.516;10.478;2024-03-22T11:44:41;13.45;;;7.40;;
18649;SDS011;9454;53.516;10.478;2024-03-22T11:47:46;13.18;;;7.38;;
18649;SDS011;9454;53.516;10.478;2024-03-22T11:50:51;14.75;;;6.88;;
18649;SDS011;9454;53.516;10.478;2024-03-22T11:53:55;10.65;;;5.85;;
18649;SDS011;9454;53.516;10.478;2024-03-22T11:56:59;12.15;;;6.38;;
18649;SDS011;9454;53.516;10.478;2024-03-22T12:00:01;11.93;;;6.78;;
18649;SDS011;9454;53.516;10.478;2024-03-22T12:03:18;13.15;;;5.97;;
18649;SDS011;9454;53.516;10.478;2024-03-22T12:06:21;12.40;;;6.60;;
18649;SDS011;9454;53.516;10.478;2024-03-22T12:09:24;11.10;;;6.13;;
18649;SDS011;9454;53.516;10.478;2024-03-22T12:12:26;12.23;;;5.60;;
18649;SDS011;9454;53.516;10.478;2024-03-22T12:15:29;13.02;;;5.57;;
18649;SDS011;9454;53.516;10.478;2024-03-22T12:18:31;10.40;;;5.70;;
18649;SDS011;9454;53.516;10.478;2024-03-22T12:21:35;11.50;;;6.28;;
18649;SDS011;9454;53.516;10.478;2024-03-22T12:24:37;8.43;;;4.70;;
18649;SDS011;9454;53.516;10.478;2024-03-22T12:27:39;8.15;;;4.93;;
18649;SDS011;9454;53.516;10.478;2024-03-22T12:30:46;9.82;;;5.25;;
18649;SDS011;9454;53.516;10.478;2024-03-22T12:33:51;10.95;;;5.78;;
18649;SDS011;9454;53.516;10.478;2024-03-22T12:36:57;10.48;;;5.65;;
18649;SDS011;9454;53.516;10.478;2024-03-22T12:39:59;10.48;;;5.32;;
18649;SDS011;9454;53.516;10.478;2024-03-22T12:43:03;9.90;;;4.90;;
18649;SDS011;9454;53.516;10.478;2024-03-22T12:46:05;9.98;;;5.15;;
18649;SDS011;9454;53.516;10.478;2024-03-22T12:49:08;9.05;;;4.88;;
18649;SDS011;9454;53.516;10.478;2024-03-22T12:52:11;10.73;;;5.43;;
18649;SDS011;9454;53.516;10.478;2024-03-22T12:55:14;10.15;;;4.35;;
18649;SDS011;9454;53.516;10.478;2024-03-22T12:58:16;8.10;;;4.38;;
18649;SDS011;9454;53.516;10.478;2024-03-22T13:01:19;6.78;;;4.07;;
18649;SDS011;9454;53.516;10.478;2024-03-22T13:04:21;11.43;;;5.07;;
18649;SDS011;9454;53.516;10.478;2024-03-22T13:07:27;6.93;;;4.00;;
18649;SDS011;9454;53.516;10.478;2024-03-22T13:10:33;8.23;;;3.90;;
18649;SDS011;9454;53.516;10.478;2024-03-22T13:13:36;12.00;;;4.63;;
18649;SDS011;9454;53.516;10.478;2024-03-22T13:16:39;8.30;;;3.78;;
18649;SDS011;9454;53.516;10.478;2024-03-22T13:19:40;7.60;;;3.75;;
18649;SDS011;9454;53.516;10.478;2024-03-22T13:22:44;8.38;;;4.28;;
18649;SDS011;9454;53.516;10.478;2024-03-22T13:25:47;9.25;;;4.10;;
18649;SDS011;9454;53.516;10.478;2024-03-22T13:28:49;7.88;;;3.75;;
18649;SDS011;9454;53.516;10.478;2024-03-22T13:31:52;6.25;;;4.20;;
18649;SDS011;9454;53.516;10.478;2024-03-22T13:34:54;6.30;;;3.25;;
18649;SDS011;9454;53.516;10.478;2024-03-22T13:37:58;4.55;;;3.20;;
18649;SDS011;9454;53.516;10.478;2024-03-22T13:41:01;7.90;;;3.63;;
18649;SDS011;9454;53.516;10.478;2024-03-22T13:44:04;5.30;;;3.47;;
18649;SDS011;9454;53.516;10.478;2024-03-22T13:47:08;10.15;;;5.25;;
18649;SDS011;9454;53.516;10.478;2024-03-22T13:50:11;8.93;;;5.35;;
18649;SDS011;9454;53.516;10.478;2024-03-22T13:53:14;6.68;;;3.72;;
18649;SDS011;9454;53.516;10.478;2024-03-22T13:56:17;5.15;;;3.10;;
18649;SDS011;9454;53.516;10.478;2024-03-22T13:59:19;6.20;;;3.65;;
18649;SDS011;9454;53.516;10.478;2024-03-22T14:02:24;5.70;;;2.67;;
18649;SDS011;9454;53.516;10.478;2024-03-22T14:05:26;4.05;;;2.63;;
18649;SDS011;9454;53.516;10.478;2024-03-22T14:08:31;3.75;;;2.50;;
18649;SDS011;9454;53.516;10.478;2024-03-22T14:11:33;3.33;;;2.35;;
18649;SDS011;9454;53.516;10.478;2024-03-22T14:14:36;3.20;;;2.00;;
18649;SDS011;9454;53.516;10.478;2024-03-22T14:17:38;3.55;;;2.10;;
18649;SDS011;9454;53.516;10.478;2024-03-22T14:20:40;2.38;;;2.00;;
18649;SDS011;9454;53.516;10.478;2024-03-22T14:23:44;2.97;;;1.80;;
18649;SDS011;9454;53.516;10.478;2024-03-22T14:26:47;2.08;;;1.52;;
18649;SDS011;9454;53.516;10.478;2024-03-22T14:29:50;2.30;;;1.58;;
18649;SDS011;9454;53.516;10.478;2024-03-22T14:32:53;5.47;;;1.52;;
18649;SDS011;9454;53.516;10.478;2024-03-22T14:35:56;1.55;;;1.35;;
18649;SDS011;9454;53.516;10.478;2024-03-22T14:39:00;3.10;;;1.58;;
18649;SDS011;9454;53.516;10.478;2024-03-22T14:42:06;2.63;;;1.40;;
18649;SDS011;9454;53.516;10.478;2024-03-22T14:45:08;1.42;;;1.10;;
18649;SDS011;9454;53.516;10.478;2024-03-22T14:48:11;1.10;;;1.00;;
18649;SDS011;9454;53.516;10.478;2024-03-22T14:51:13;0.82;;;0.82;;
18649;SDS011;9454;53.516;10.478;2024-03-22T14:54:17;0.98;;;0.88;;
18649;SDS011;9454;53.516;10.478;2024-03-22T14:57:19;3.15;;;1.38;;
18649;SDS011;9454;53.516;10.478;2024-03-22T15:00:21;2.00;;;1.15;;
18649;SDS011;9454;53.516;10.478;2024-03-22T15:03:26;1.38;;;1.17;;
18649;SDS011;9454;53.516;10.478;2024-03-22T15:06:29;0.80;;;0.80;;
18649;SDS011;9454;53.516;10.478;2024-03-22T15:09:32;1.20;;;0.90;;
18649;SDS011;9454;53.516;10.478;2024-03-22T15:12:35;1.50;;;0.90;;
18649;SDS011;9454;53.516;10.478;2024-03-22T15:15:37;0.73;;;0.70;;
18649;SDS011;9454;53.516;10.478;2024-03-22T15:18:40;0.70;;;0.70;;
18649;SDS011;9454;53.516;10.478;2024-03-22T15:21:42;2.50;;;1.00;;
18649;SDS011;9454;53.516;10.478;2024-03-22T15:24:48;2.72;;;0.82;;
18649;SDS011;9454;53.516;10.478;2024-03-22T15:27:51;4.55;;;1.40;;
18649;SDS011;9454;53.516;10.478;2024-03-22T15:30:54;7.18;;;1.10;;
18649;SDS011;9454;53.516;10.478;2024-03-22T15:33:56;6.65;;;1.10;;
18649;SDS011;9454;53.516;10.478;2024-03-22T15:36:59;12.05;;;1.38;;
18649;SDS011;9454;53.516;10.478;2024-03-22T15:40:03;8.27;;;1.33;;
18649;SDS011;9454;53.516;10.478;2024-03-22T15:43:07;5.85;;;1.50;;
18649;SDS011;9454;53.516;10.478;2024-03-22T15:46:09;7.25;;;1.77;;
18649;SDS011;9454;53.516;10.478;2024-03-22T15:49:12;11.80;;;2.17;;
18649;SDS011;9454;53.516;10.478;2024-03-22T15:52:15;11.13;;;1.45;;
18649;SDS011;9454;53.516;10.478;2024-03-22T15:55:19;6.15;;;1.73;;
18649;SDS011;9454;53.516;10.478;2024-03-22T15:58:23;9.13;;;1.30;;
18649;SDS011;9454;53.516;10.478;2024-03-22T16:01:30;14.05;;;2.20;;
18649;SDS011;9454;53.516;10.478;2024-03-22T16:04:32;9.45;;;2.28;;
18649;SDS011;9454;53.516;10.478;2024-03-22T16:07:34;7.95;;;1.33;;
18649;SDS011;9454;53.516;10.478;2024-03-22T16:10:37;11.95;;;1.45;;
18649;SDS011;9454;53.516;10.478;2024-03-22T16:13:40;13.40;;;1.95;;
18649;SDS011;9454;53.516;10.478;2024-03-22T16:16:42;13.68;;;1.80;;
18649;SDS011;9454;53.516;10.478;2024-03-22T16:19:45;17.63;;;2.22;;
18649;SDS011;9454;53.516;10.478;2024-03-22T16:22:48;7.35;;;1.50;;
18649;SDS011;9454;53.516;10.478;2024-03-22T16:25:51;9.73;;;2.28;;
18649;SDS011;9454;53.516;10.478;2024-03-22T16:28:53;12.18;;;2.03;;
18649;SDS011;9454;53.516;10.478;2024-03-22T16:31:55;13.35;;;1.80;;
18649;SDS011;9454;53.516;10.478;2024-03-22T16:34:58;12.57;;;1.90;;
18649;SDS011;9454;53.516;10.478;2024-03-22T16:38:00;16.60;;;2.60;;
18649;SDS011;9454;53.516;10.478;2024-03-22T16:41:04;13.38;;;2.38;;
18649;SDS011;9454;53.516;10.478;2024-03-22T16:44:06;15.13;;;2.03;;
18649;SDS011;9454;53.516;10.478;2024-03-22T16:47:09;21.77;;;2.05;;
18649;SDS011;9454;53.516;10.478;2024-03-22T16:50:17;12.73;;;2.10;;
18649;SDS011;9454;53.516;10.478;2024-03-22T16:53:20;12.43;;;2.25;;
18649;SDS011;9454;53.516;10.478;2024-03-22T16:56:25;15.75;;;2.15;;
18649;SDS011;9454;53.516;10.478;2024-03-22T16:59:27;12.88;;;1.90;;
18649;SDS011;9454;53.516;10.478;2024-03-22T17:02:33;16.23;;;2.88;;
18649;SDS011;9454;53.516;10.478;2024-03-22T17:05:36;12.15;;;2.20;;
18649;SDS011;9454;53.516;10.478;2024-03-22T17:08:39;11.15;;;2.17;;
18649;SDS011;9454;53.516;10.478;2024-03-22T17:11:44;12.85;;;2.80;;
18649;SDS011;9454;53.516;10.478;2024-03-22T17:14:47;14.82;;;1.92;;
18649;SDS011;9454;53.516;10.478;2024-03-22T17:17:49;11.65;;;1.83;;
18649;SDS011;9454;53.516;10.478;2024-03-22T17:20:52;14.45;;;2.42;;
18649;SDS011;9454;53.516;10.478;2024-03-22T17:23:55;19.33;;;2.45;;
18649;SDS011;9454;53.516;10.478;2024-03-22T17:26:59;12.68;;;2.88;;
18649;SDS011;9454;53.516;10.478;2024-03-22T17:30:05;14.30;;;1.95;;
18649;SDS011;9454;53.516;10.478;2024-03-22T17:33:08;11.82;;;2.17;;
18649;SDS011;9454;53.516;10.478;2024-03-22T17:36:09;15.05;;;2.42;;
18649;SDS011;9454;53.516;10.478;2024-03-22T17:39:12;15.15;;;2.72;;
18649;SDS011;9454;53.516;10.478;2024-03-22T17:42:16;12.07;;;2.20;;
18649;SDS011;9454;53.516;10.478;2024-03-22T17:45:18;14.90;;;2.28;;
18649;SDS011;9454;53.516;10.478;2024-03-22T17:48:20;10.07;;;1.88;;
18649;SDS011;9454;53.516;10.478;2024-03-22T17:51:22;12.10;;;1.95;;
18649;SDS011;9454;53.516;10.478;2024-03-22T17:54:24;16.08;;;2.90;;
18649;SDS011;9454;53.516;10.478;2024-03-22T17:57:28;19.40;;;2.50;;
18649;SDS011;9454;53.516;10.478;2024-03-22T18:00:31;14.13;;;2.20;;
18649;SDS011;9454;53.516;10.478;2024-03-22T18:03:34;17.67;;;2.22;;